sensor_id;sensor_type;location;lat;lon;timestamp;P1;durP1;ratioP1;P2;durP2;ratioP2
4758;SDS011;2393;50.560;12.636;2023-01-06T00:01:52;11.43;;;2.33;;
4758;SDS011;2393;50.560;12.636;2023-01-06T00:04:20;11.80;;;2.43;;
4758;SDS011;2393;50.560;12.636;2023-01-06T00:06:48;10.40;;;2.50;;
4758;SDS011;2393;50.560;12.636;2023-01-06T00:09:17;16.80;;;2.37;;
4758;SDS011;2393;50.560;12.636;2023-01-06T00:11:46;11.83;;;2.43;;
4758;SDS011;2393;50.560;12.636;2023-01-06T00:14:14;13.50;;;2.30;;
4758;SDS011;2393;50.560;12.636;2023-01-06T00:16:42;4.40;;;1.73;;
4758;SDS011;2393;50.560;12.636;2023-01-06T00:19:10;15.63;;;2.30;;
4758;SDS011;2393;50.560;12.636;2023-01-06T00:21:41;12.70;;;2.57;;
4758;SDS011;2393;50.560;12.636;2023-01-06T00:24:09;9.10;;;2.17;;
4758;SDS011;2393;50.560;12.636;2023-01-06T00:26:39;13.13;;;2.40;;
4758;SDS011;2393;50.560;12.636;2023-01-06T00:29:08;10.20;;;2.43;;
4758;SDS011;2393;50.560;12.636;2023-01-06T00:31:37;21.77;;;3.50;;
4758;SDS011;2393;50.560;12.636;2023-01-06T00:34:08;16.90;;;2.30;;
4758;SDS011;2393;50.560;12.636;2023-01-06T00:36:39;9.23;;;2.10;;
4758;SDS011;2393;50.560;12.636;2023-01-06T00:39:10;5.47;;;1.87;;
4758;SDS011;2393;50.560;12.636;2023-01-06T00:41:39;12.60;;;2.03;;
4758;SDS011;2393;50.560;12.636;2023-01-06T00:44:25;10.63;;;2.50;;
4758;SDS011;2393;50.560;12.636;2023-01-06T00:46:53;12.97;;;2.77;;
4758;SDS011;2393;50.560;12.636;2023-01-06T00:49:21;5.70;;;2.33;;
4758;SDS011;2393;50.560;12.636;2023-01-06T00:51:49;5.53;;;1.93;;
4758;SDS011;2393;50.560;12.636;2023-01-06T00:54:18;7.73;;;1.97;;
4758;SDS011;2393;50.560;12.636;2023-01-06T00:56:48;11.40;;;1.93;;
4758;SDS011;2393;50.560;12.636;2023-01-06T00:59:21;17.00;;;2.33;;
4758;SDS011;2393;50.560;12.636;2023-01-06T01:01:51;10.70;;;1.43;;
4758;SDS011;2393;50.560;12.636;2023-01-06T01:04:20;12.27;;;2.67;;
4758;SDS011;2393;50.560;12.636;2023-01-06T01:06:51;4.90;;;1.50;;
4758;SDS011;2393;50.560;12.636;2023-01-06T01:09:21;4.63;;;2.50;;
4758;SDS011;2393;50.560;12.636;2023-01-06T01:11:52;11.43;;;1.93;;
4758;SDS011;2393;50.560;12.636;2023-01-06T01:14:40;13.87;;;1.80;;
4758;SDS011;2393;50.560;12.636;2023-01-06T01:17:12;4.77;;;1.40;;
4758;SDS011;2393;50.560;12.636;2023-01-06T01:19:43;8.20;;;1.60;;
4758;SDS011;2393;50.560;12.636;2023-01-06T01:22:11;8.23;;;2.10;;
4758;SDS011;2393;50.560;12.636;2023-01-06T01:24:46;29.73;;;1.97;;
4758;SDS011;2393;50.560;12.636;2023-01-06T01:27:15;14.67;;;1.70;;
4758;SDS011;2393;50.560;12.636;2023-01-06T01:29:44;11.07;;;2.57;;
4758;SDS011;2393;50.560;12.636;2023-01-06T01:32:12;5.90;;;1.43;;
4758;SDS011;2393;50.560;12.636;2023-01-06T01:34:40;10.87;;;2.00;;
4758;SDS011;2393;50.560;12.636;2023-01-06T01:37:08;2.77;;;1.67;;
4758;SDS011;2393;50.560;12.636;2023-01-06T01:39:36;9.87;;;2.60;;
4758;SDS011;2393;50.560;12.636;2023-01-06T01:42:05;5.80;;;1.80;;
4758;SDS011;2393;50.560;12.636;2023-01-06T01:44:49;8.97;;;2.37;;
4758;SDS011;2393;50.560;12.636;2023-01-06T01:47:22;6.67;;;2.00;;
4758;SDS011;2393;50.560;12.636;2023-01-06T01:49:54;3.00;;;1.90;;
4758;SDS011;2393;50.560;12.636;2023-01-06T01:52:25;14.97;;;2.03;;
4758;SDS011;2393;50.560;12.636;2023-01-06T01:54:54;3.03;;;1.30;;
4758;SDS011;2393;50.560;12.636;2023-01-06T01:57:24;6.37;;;1.53;;
4758;SDS011;2393;50.560;12.636;2023-01-06T01:59:57;8.63;;;1.50;;
4758;SDS011;2393;50.560;12.636;2023-01-06T02:02:27;11.00;;;1.50;;
4758;SDS011;2393;50.560;12.636;2023-01-06T02:04:57;2.30;;;1.43;;
4758;SDS011;2393;50.560;12.636;2023-01-06T02:07:28;5.43;;;1.20;;
4758;SDS011;2393;50.560;12.636;2023-01-06T02:10:00;2.63;;;1.10;;
4758;SDS011;2393;50.560;12.636;2023-01-06T02:12:34;6.70;;;1.20;;
4758;SDS011;2393;50.560;12.636;2023-01-06T02:15:05;4.53;;;1.53;;
4758;SDS011;2393;50.560;12.636;2023-01-06T02:17:48;5.83;;;0.97;;
4758;SDS011;2393;50.560;12.636;2023-01-06T02:24:03;1.83;;;1.00;;
4758;SDS011;2393;50.560;12.636;2023-01-06T02:27:02;2.90;;;1.07;;
4758;SDS011;2393;50.560;12.636;2023-01-06T02:32:56;4.50;;;0.97;;
4758;SDS011;2393;50.560;12.636;2023-01-06T02:35:34;1.17;;;0.63;;
4758;SDS011;2393;50.560;12.636;2023-01-06T02:38:17;3.73;;;0.57;;
4758;SDS011;2393;50.560;12.636;2023-01-06T02:40:58;5.10;;;1.07;;
4758;SDS011;2393;50.560;12.636;2023-01-06T02:43:39;4.90;;;1.03;;
4758;SDS011;2393;50.560;12.636;2023-01-06T02:46:16;5.50;;;0.97;;
4758;SDS011;2393;50.560;12.636;2023-01-06T02:48:57;0.77;;;0.77;;
4758;SDS011;2393;50.560;12.636;2023-01-06T02:51:39;1.70;;;0.80;;
4758;SDS011;2393;50.560;12.636;2023-01-06T02:54:14;2.27;;;0.83;;
4758;SDS011;2393;50.560;12.636;2023-01-06T02:56:52;0.70;;;0.70;;
4758;SDS011;2393;50.560;12.636;2023-01-06T02:59:24;1.23;;;1.13;;
4758;SDS011;2393;50.560;12.636;2023-01-06T03:01:57;6.63;;;0.70;;
4758;SDS011;2393;50.560;12.636;2023-01-06T03:04:30;0.93;;;0.70;;
4758;SDS011;2393;50.560;12.636;2023-01-06T03:07:04;0.93;;;0.90;;
4758;SDS011;2393;50.560;12.636;2023-01-06T03:09:36;2.93;;;0.93;;
4758;SDS011;2393;50.560;12.636;2023-01-06T03:12:06;1.57;;;0.80;;
4758;SDS011;2393;50.560;12.636;2023-01-06T03:14:39;2.77;;;0.73;;
4758;SDS011;2393;50.560;12.636;2023-01-06T03:17:11;1.17;;;1.03;;
4758;SDS011;2393;50.560;12.636;2023-01-06T03:19:40;2.53;;;0.90;;
4758;SDS011;2393;50.560;12.636;2023-01-06T03:22:11;0.50;;;0.50;;
4758;SDS011;2393;50.560;12.636;2023-01-06T03:24:40;1.43;;;0.80;;
4758;SDS011;2393;50.560;12.636;2023-01-06T03:27:09;0.67;;;0.50;;
4758;SDS011;2393;50.560;12.636;2023-01-06T03:29:38;0.50;;;0.50;;
4758;SDS011;2393;50.560;12.636;2023-01-06T03:32:10;1.70;;;0.40;;
4758;SDS011;2393;50.560;12.636;2023-01-06T03:34:49;2.60;;;0.50;;
4758;SDS011;2393;50.560;12.636;2023-01-06T03:37:29;1.13;;;0.50;;
4758;SDS011;2393;50.560;12.636;2023-01-06T03:40:04;0.30;;;0.30;;
4758;SDS011;2393;50.560;12.636;2023-01-06T03:42:38;0.50;;;0.50;;
4758;SDS011;2393;50.560;12.636;2023-01-06T03:45:35;0.40;;;0.40;;
4758;SDS011;2393;50.560;12.636;2023-01-06T03:48:10;0.70;;;0.43;;
4758;SDS011;2393;50.560;12.636;2023-01-06T03:50:48;0.30;;;0.30;;
4758;SDS011;2393;50.560;12.636;2023-01-06T03:53:22;0.47;;;0.47;;
4758;SDS011;2393;50.560;12.636;2023-01-06T03:55:57;0.80;;;0.50;;
4758;SDS011;2393;50.560;12.636;2023-01-06T03:58:36;0.30;;;0.30;;
4758;SDS011;2393;50.560;12.636;2023-01-06T04:01:07;1.70;;;0.30;;
4758;SDS011;2393;50.560;12.636;2023-01-06T04:03:37;0.40;;;0.30;;
4758;SDS011;2393;50.560;12.636;2023-01-06T04:06:07;0.97;;;0.30;;
4758;SDS011;2393;50.560;12.636;2023-01-06T04:08:36;1.60;;;0.40;;
4758;SDS011;2393;50.560;12.636;2023-01-06T04:11:04;0.30;;;0.20;;
4758;SDS011;2393;50.560;12.636;2023-01-06T04:13:32;0.40;;;0.30;;
4758;SDS011;2393;50.560;12.636;2023-01-06T04:15:59;1.13;;;0.47;;
4758;SDS011;2393;50.560;12.636;2023-01-06T04:18:28;0.60;;;0.30;;
4758;SDS011;2393;50.560;12.636;2023-01-06T04:20:56;1.70;;;0.40;;
4758;SDS011;2393;50.560;12.636;2023-01-06T04:23:28;0.33;;;0.30;;
4758;SDS011;2393;50.560;12.636;2023-01-06T04:26:00;0.30;;;0.30;;
4758;SDS011;2393;50.560;12.636;2023-01-06T04:28:33;0.40;;;0.40;;
4758;SDS011;2393;50.560;12.636;2023-01-06T04:31:06;0.53;;;0.53;;
4758;SDS011;2393;50.560;12.636;2023-01-06T04:33:35;0.50;;;0.50;;
4758;SDS011;2393;50.560;12.636;2023-01-06T04:36:05;0.70;;;0.70;;
4758;SDS011;2393;50.560;12.636;2023-01-06T04:38:38;3.17;;;0.50;;
4758;SDS011;2393;50.560;12.636;2023-01-06T04:41:06;0.50;;;0.50;;
4758;SDS011;2393;50.560;12.636;2023-01-06T04:43:34;1.03;;;0.63;;
4758;SDS011;2393;50.560;12.636;2023-01-06T04:46:02;0.40;;;0.40;;
4758;SDS011;2393;50.560;12.636;2023-01-06T04:48:30;1.07;;;0.57;;
4758;SDS011;2393;50.560;12.636;2023-01-06T04:50:59;0.43;;;0.40;;
4758;SDS011;2393;50.560;12.636;2023-01-06T04:53:28;0.30;;;0.30;;
4758;SDS011;2393;50.560;12.636;2023-01-06T04:56:00;0.30;;;0.30;;
4758;SDS011;2393;50.560;12.636;2023-01-06T04:58:29;0.70;;;0.37;;
4758;SDS011;2393;50.560;12.636;2023-01-06T05:01:00;0.33;;;0.33;;
4758;SDS011;2393;50.560;12.636;2023-01-06T05:03:29;0.93;;;0.40;;
4758;SDS011;2393;50.560;12.636;2023-01-06T05:05:59;0.40;;;0.30;;
4758;SDS011;2393;50.560;12.636;2023-01-06T05:08:28;0.80;;;0.30;;
4758;SDS011;2393;50.560;12.636;2023-01-06T05:11:01;0.67;;;0.30;;
4758;SDS011;2393;50.560;12.636;2023-01-06T05:13:30;0.40;;;0.30;;
4758;SDS011;2393;50.560;12.636;2023-01-06T05:15:58;0.30;;;0.20;;
4758;SDS011;2393;50.560;12.636;2023-01-06T05:18:26;0.30;;;0.20;;
4758;SDS011;2393;50.560;12.636;2023-01-06T05:20:59;0.40;;;0.30;;
4758;SDS011;2393;50.560;12.636;2023-01-06T05:23:30;0.30;;;0.20;;
4758;SDS011;2393;50.560;12.636;2023-01-06T05:25:58;0.30;;;0.20;;
4758;SDS011;2393;50.560;12.636;2023-01-06T05:28:28;0.30;;;0.20;;
4758;SDS011;2393;50.560;12.636;2023-01-06T05:30:59;0.30;;;0.30;;
4758;SDS011;2393;50.560;12.636;2023-01-06T05:33:28;0.30;;;0.20;;
4758;SDS011;2393;50.560;12.636;2023-01-06T05:35:58;0.30;;;0.20;;
4758;SDS011;2393;50.560;12.636;2023-01-06T05:38:27;0.30;;;0.23;;
4758;SDS011;2393;50.560;12.636;2023-01-06T05:40:58;0.30;;;0.20;;
4758;SDS011;2393;50.560;12.636;2023-01-06T05:43:27;0.77;;;0.30;;
4758;SDS011;2393;50.560;12.636;2023-01-06T05:46:03;0.30;;;0.20;;
4758;SDS011;2393;50.560;12.636;2023-01-06T05:48:32;0.50;;;0.30;;
4758;SDS011;2393;50.560;12.636;2023-01-06T05:51:01;0.47;;;0.30;;
4758;SDS011;2393;50.560;12.636;2023-01-06T05:53:30;2.40;;;0.20;;
4758;SDS011;2393;50.560;12.636;2023-01-06T05:55:59;0.30;;;0.30;;
4758;SDS011;2393;50.560;12.636;2023-01-06T05:58:29;0.30;;;0.20;;
4758;SDS011;2393;50.560;12.636;2023-01-06T06:00:58;0.30;;;0.20;;
4758;SDS011;2393;50.560;12.636;2023-01-06T06:03:26;0.30;;;0.20;;
4758;SDS011;2393;50.560;12.636;2023-01-06T06:05:54;0.30;;;0.20;;
4758;SDS011;2393;50.560;12.636;2023-01-06T06:08:22;0.40;;;0.20;;
4758;SDS011;2393;50.560;12.636;2023-01-06T06:10:50;0.30;;;0.20;;
4758;SDS011;2393;50.560;12.636;2023-01-06T06:13:18;0.30;;;0.30;;
4758;SDS011;2393;50.560;12.636;2023-01-06T06:15:47;0.30;;;0.20;;
4758;SDS011;2393;50.560;12.636;2023-01-06T06:18:15;0.30;;;0.20;;
4758;SDS011;2393;50.560;12.636;2023-01-06T06:20:43;0.30;;;0.20;;
4758;SDS011;2393;50.560;12.636;2023-01-06T06:23:11;0.30;;;0.20;;
4758;SDS011;2393;50.560;12.636;2023-01-06T06:25:39;0.30;;;0.20;;
4758;SDS011;2393;50.560;12.636;2023-01-06T06:28:07;0.30;;;0.20;;
4758;SDS011;2393;50.560;12.636;2023-01-06T06:30:35;0.30;;;0.30;;
4758;SDS011;2393;50.560;12.636;2023-01-06T06:33:04;0.30;;;0.30;;
4758;SDS011;2393;50.560;12.636;2023-01-06T06:35:32;0.40;;;0.40;;
4758;SDS011;2393;50.560;12.636;2023-01-06T06:38:00;0.50;;;0.50;;
4758;SDS011;2393;50.560;12.636;2023-01-06T06:40:28;0.30;;;0.20;;
4758;SDS011;2393;50.560;12.636;2023-01-06T06:42:56;0.30;;;0.20;;
4758;SDS011;2393;50.560;12.636;2023-01-06T06:45:24;0.30;;;0.30;;
4758;SDS011;2393;50.560;12.636;2023-01-06T06:47:52;0.40;;;0.40;;
4758;SDS011;2393;50.560;12.636;2023-01-06T06:50:22;0.40;;;0.20;;
4758;SDS011;2393;50.560;12.636;2023-01-06T06:52:50;0.60;;;0.50;;
4758;SDS011;2393;50.560;12.636;2023-01-06T06:55:18;0.30;;;0.30;;
4758;SDS011;2393;50.560;12.636;2023-01-06T06:57:45;0.30;;;0.20;;
4758;SDS011;2393;50.560;12.636;2023-01-06T07:00:14;0.30;;;0.30;;
4758;SDS011;2393;50.560;12.636;2023-01-06T07:02:42;0.40;;;0.40;;
4758;SDS011;2393;50.560;12.636;2023-01-06T07:05:13;0.30;;;0.30;;
4758;SDS011;2393;50.560;12.636;2023-01-06T07:07:43;0.30;;;0.30;;
4758;SDS011;2393;50.560;12.636;2023-01-06T07:10:11;0.40;;;0.40;;
4758;SDS011;2393;50.560;12.636;2023-01-06T07:12:41;0.40;;;0.30;;
4758;SDS011;2393;50.560;12.636;2023-01-06T07:15:09;0.30;;;0.30;;
4758;SDS011;2393;50.560;12.636;2023-01-06T07:17:38;0.30;;;0.30;;
4758;SDS011;2393;50.560;12.636;2023-01-06T07:20:07;0.50;;;0.30;;
4758;SDS011;2393;50.560;12.636;2023-01-06T07:22:36;0.30;;;0.30;;
4758;SDS011;2393;50.560;12.636;2023-01-06T07:25:07;0.30;;;0.30;;
4758;SDS011;2393;50.560;12.636;2023-01-06T07:27:36;0.30;;;0.20;;
4758;SDS011;2393;50.560;12.636;2023-01-06T07:30:04;0.50;;;0.40;;
4758;SDS011;2393;50.560;12.636;2023-01-06T07:32:33;0.43;;;0.43;;
4758;SDS011;2393;50.560;12.636;2023-01-06T07:35:01;0.50;;;0.50;;
4758;SDS011;2393;50.560;12.636;2023-01-06T07:37:29;0.57;;;0.30;;
4758;SDS011;2393;50.560;12.636;2023-01-06T07:39:56;0.30;;;0.30;;
4758;SDS011;2393;50.560;12.636;2023-01-06T07:42:26;0.30;;;0.20;;
4758;SDS011;2393;50.560;12.636;2023-01-06T07:44:54;0.40;;;0.30;;
4758;SDS011;2393;50.560;12.636;2023-01-06T07:47:22;2.37;;;0.30;;
4758;SDS011;2393;50.560;12.636;2023-01-06T07:49:52;0.30;;;0.30;;
4758;SDS011;2393;50.560;12.636;2023-01-06T07:52:20;0.83;;;0.57;;
4758;SDS011;2393;50.560;12.636;2023-01-06T07:54:48;0.40;;;0.40;;
4758;SDS011;2393;50.560;12.636;2023-01-06T07:57:16;0.40;;;0.30;;
4758;SDS011;2393;50.560;12.636;2023-01-06T07:59:45;0.50;;;0.43;;
4758;SDS011;2393;50.560;12.636;2023-01-06T08:02:13;1.13;;;0.47;;
4758;SDS011;2393;50.560;12.636;2023-01-06T08:04:41;0.50;;;0.50;;
4758;SDS011;2393;50.560;12.636;2023-01-06T08:07:09;0.60;;;0.60;;
4758;SDS011;2393;50.560;12.636;2023-01-06T08:09:37;2.70;;;1.83;;
4758;SDS011;2393;50.560;12.636;2023-01-06T08:12:05;3.60;;;1.60;;
4758;SDS011;2393;50.560;12.636;2023-01-06T08:14:33;2.60;;;1.40;;
4758;SDS011;2393;50.560;12.636;2023-01-06T08:17:03;2.53;;;1.63;;
4758;SDS011;2393;50.560;12.636;2023-01-06T08:19:32;1.53;;;1.43;;
4758;SDS011;2393;50.560;12.636;2023-01-06T08:22:00;2.30;;;0.83;;
4758;SDS011;2393;50.560;12.636;2023-01-06T08:24:28;1.00;;;0.90;;
4758;SDS011;2393;50.560;12.636;2023-01-06T08:26:58;1.80;;;1.70;;
4758;SDS011;2393;50.560;12.636;2023-01-06T08:29:26;1.70;;;0.60;;
4758;SDS011;2393;50.560;12.636;2023-01-06T08:31:54;0.53;;;0.53;;
4758;SDS011;2393;50.560;12.636;2023-01-06T08:34:36;0.60;;;0.37;;
4758;SDS011;2393;50.560;12.636;2023-01-06T08:37:04;0.70;;;0.50;;
4758;SDS011;2393;50.560;12.636;2023-01-06T08:39:32;0.40;;;0.40;;
4758;SDS011;2393;50.560;12.636;2023-01-06T08:42:00;0.40;;;0.40;;
4758;SDS011;2393;50.560;12.636;2023-01-06T08:44:28;1.67;;;0.30;;
4758;SDS011;2393;50.560;12.636;2023-01-06T08:46:56;0.77;;;0.50;;
4758;SDS011;2393;50.560;12.636;2023-01-06T08:49:24;0.30;;;0.30;;
4758;SDS011;2393;50.560;12.636;2023-01-06T08:51:54;0.60;;;0.30;;
4758;SDS011;2393;50.560;12.636;2023-01-06T08:54:23;0.30;;;0.20;;
4758;SDS011;2393;50.560;12.636;2023-01-06T08:56:51;0.30;;;0.20;;
4758;SDS011;2393;50.560;12.636;2023-01-06T08:59:19;0.30;;;0.20;;
4758;SDS011;2393;50.560;12.636;2023-01-06T09:01:48;0.30;;;0.20;;
4758;SDS011;2393;50.560;12.636;2023-01-06T09:04:16;0.30;;;0.23;;
4758;SDS011;2393;50.560;12.636;2023-01-06T09:06:44;0.50;;;0.20;;
4758;SDS011;2393;50.560;12.636;2023-01-06T09:09:16;0.30;;;0.20;;
4758;SDS011;2393;50.560;12.636;2023-01-06T09:11:47;2.30;;;0.20;;
4758;SDS011;2393;50.560;12.636;2023-01-06T09:14:18;0.30;;;0.20;;
4758;SDS011;2393;50.560;12.636;2023-01-06T09:16:49;0.40;;;0.20;;
4758;SDS011;2393;50.560;12.636;2023-01-06T09:19:17;0.67;;;0.67;;
4758;SDS011;2393;50.560;12.636;2023-01-06T09:21:46;0.30;;;0.20;;
4758;SDS011;2393;50.560;12.636;2023-01-06T09:24:14;1.13;;;0.30;;
4758;SDS011;2393;50.560;12.636;2023-01-06T09:26:44;0.40;;;0.33;;
4758;SDS011;2393;50.560;12.636;2023-01-06T09:29:12;1.17;;;0.30;;
4758;SDS011;2393;50.560;12.636;2023-01-06T09:31:44;0.47;;;0.30;;
4758;SDS011;2393;50.560;12.636;2023-01-06T09:34:15;0.40;;;0.27;;
4758;SDS011;2393;50.560;12.636;2023-01-06T09:36:56;0.40;;;0.40;;
4758;SDS011;2393;50.560;12.636;2023-01-06T09:39:39;0.37;;;0.20;;
4758;SDS011;2393;50.560;12.636;2023-01-06T09:42:17;0.30;;;0.30;;
4758;SDS011;2393;50.560;12.636;2023-01-06T09:45:29;0.40;;;0.20;;
4758;SDS011;2393;50.560;12.636;2023-01-06T09:48:02;1.43;;;0.40;;
4758;SDS011;2393;50.560;12.636;2023-01-06T09:50:33;0.30;;;0.23;;
4758;SDS011;2393;50.560;12.636;2023-01-06T09:53:04;0.47;;;0.20;;
4758;SDS011;2393;50.560;12.636;2023-01-06T09:55:40;0.30;;;0.30;;
4758;SDS011;2393;50.560;12.636;2023-01-06T09:58:10;0.30;;;0.23;;
4758;SDS011;2393;50.560;12.636;2023-01-06T10:00:40;0.70;;;0.40;;
4758;SDS011;2393;50.560;12.636;2023-01-06T10:03:12;0.30;;;0.30;;
4758;SDS011;2393;50.560;12.636;2023-01-06T10:05:44;0.30;;;0.20;;
4758;SDS011;2393;50.560;12.636;2023-01-06T10:08:21;0.50;;;0.40;;
4758;SDS011;2393;50.560;12.636;2023-01-06T10:11:03;0.40;;;0.30;;
4758;SDS011;2393;50.560;12.636;2023-01-06T10:13:41;0.43;;;0.20;;
4758;SDS011;2393;50.560;12.636;2023-01-06T10:16:21;0.40;;;0.40;;
4758;SDS011;2393;50.560;12.636;2023-01-06T10:19:02;0.40;;;0.40;;
4758;SDS011;2393;50.560;12.636;2023-01-06T10:21:44;0.47;;;0.30;;
4758;SDS011;2393;50.560;12.636;2023-01-06T10:24:27;0.30;;;0.30;;
4758;SDS011;2393;50.560;12.636;2023-01-06T10:27:06;0.30;;;0.20;;
4758;SDS011;2393;50.560;12.636;2023-01-06T10:29:46;0.30;;;0.20;;
4758;SDS011;2393;50.560;12.636;2023-01-06T10:32:17;0.30;;;0.23;;
4758;SDS011;2393;50.560;12.636;2023-01-06T10:34:45;0.40;;;0.40;;
4758;SDS011;2393;50.560;12.636;2023-01-06T10:37:18;0.40;;;0.30;;
4758;SDS011;2393;50.560;12.636;2023-01-06T10:39:51;0.43;;;0.40;;
4758;SDS011;2393;50.560;12.636;2023-01-06T10:42:26;10.40;;;6.30;;
4758;SDS011;2393;50.560;12.636;2023-01-06T10:45:17;0.70;;;0.30;;
4758;SDS011;2393;50.560;12.636;2023-01-06T10:47:49;0.40;;;0.30;;
4758;SDS011;2393;50.560;12.636;2023-01-06T10:50:19;0.60;;;0.60;;
4758;SDS011;2393;50.560;12.636;2023-01-06T10:52:48;0.30;;;0.20;;
4758;SDS011;2393;50.560;12.636;2023-01-06T10:55:26;0.50;;;0.20;;
4758;SDS011;2393;50.560;12.636;2023-01-06T10:58:02;0.30;;;0.20;;
4758;SDS011;2393;50.560;12.636;2023-01-06T11:00:37;0.30;;;0.30;;
4758;SDS011;2393;50.560;12.636;2023-01-06T11:03:21;1.40;;;0.30;;
4758;SDS011;2393;50.560;12.636;2023-01-06T11:06:02;0.40;;;0.30;;
4758;SDS011;2393;50.560;12.636;2023-01-06T11:08:35;0.30;;;0.30;;
4758;SDS011;2393;50.560;12.636;2023-01-06T11:11:11;0.30;;;0.20;;
4758;SDS011;2393;50.560;12.636;2023-01-06T11:13:55;0.43;;;0.43;;
4758;SDS011;2393;50.560;12.636;2023-01-06T11:16:34;0.30;;;0.27;;
4758;SDS011;2393;50.560;12.636;2023-01-06T11:19:04;0.60;;;0.30;;
4758;SDS011;2393;50.560;12.636;2023-01-06T11:21:36;3.80;;;0.40;;
4758;SDS011;2393;50.560;12.636;2023-01-06T11:24:14;0.60;;;0.30;;
4758;SDS011;2393;50.560;12.636;2023-01-06T11:26:51;1.17;;;0.40;;
4758;SDS011;2393;50.560;12.636;2023-01-06T11:29:24;0.63;;;0.20;;
4758;SDS011;2393;50.560;12.636;2023-01-06T11:31:55;0.40;;;0.30;;
4758;SDS011;2393;50.560;12.636;2023-01-06T11:34:25;0.30;;;0.30;;
4758;SDS011;2393;50.560;12.636;2023-01-06T11:36:55;0.30;;;0.30;;
4758;SDS011;2393;50.560;12.636;2023-01-06T11:39:28;0.40;;;0.30;;
4758;SDS011;2393;50.560;12.636;2023-01-06T11:42:03;0.40;;;0.30;;
4758;SDS011;2393;50.560;12.636;2023-01-06T11:44:37;0.30;;;0.30;;
4758;SDS011;2393;50.560;12.636;2023-01-06T11:47:10;4.93;;;0.60;;
4758;SDS011;2393;50.560;12.636;2023-01-06T11:49:45;0.30;;;0.20;;
4758;SDS011;2393;50.560;12.636;2023-01-06T11:52:20;0.30;;;0.30;;
4758;SDS011;2393;50.560;12.636;2023-01-06T11:54:57;0.30;;;0.20;;
4758;SDS011;2393;50.560;12.636;2023-01-06T11:57:29;0.30;;;0.27;;
4758;SDS011;2393;50.560;12.636;2023-01-06T12:02:59;0.57;;;0.57;;
4758;SDS011;2393;50.560;12.636;2023-01-06T12:05:34;0.30;;;0.30;;
4758;SDS011;2393;50.560;12.636;2023-01-06T12:08:10;0.53;;;0.37;;
4758;SDS011;2393;50.560;12.636;2023-01-06T12:10:44;0.73;;;0.33;;
4758;SDS011;2393;50.560;12.636;2023-01-06T12:13:17;0.40;;;0.20;;
4758;SDS011;2393;50.560;12.636;2023-01-06T12:15:49;0.30;;;0.30;;
4758;SDS011;2393;50.560;12.636;2023-01-06T12:18:26;0.30;;;0.20;;
4758;SDS011;2393;50.560;12.636;2023-01-06T12:20:57;0.57;;;0.57;;
4758;SDS011;2393;50.560;12.636;2023-01-06T12:23:27;0.63;;;0.37;;
4758;SDS011;2393;50.560;12.636;2023-01-06T12:25:59;0.40;;;0.20;;
4758;SDS011;2393;50.560;12.636;2023-01-06T12:28:30;0.40;;;0.40;;
4758;SDS011;2393;50.560;12.636;2023-01-06T12:31:04;0.40;;;0.30;;
4758;SDS011;2393;50.560;12.636;2023-01-06T12:33:37;0.30;;;0.23;;
4758;SDS011;2393;50.560;12.636;2023-01-06T12:36:11;0.30;;;0.30;;
4758;SDS011;2393;50.560;12.636;2023-01-06T12:38:46;0.30;;;0.30;;
4758;SDS011;2393;50.560;12.636;2023-01-06T12:41:21;2.83;;;0.27;;
4758;SDS011;2393;50.560;12.636;2023-01-06T12:43:58;0.30;;;0.20;;
4758;SDS011;2393;50.560;12.636;2023-01-06T12:46:41;0.30;;;0.20;;
4758;SDS011;2393;50.560;12.636;2023-01-06T12:49:18;0.30;;;0.20;;
4758;SDS011;2393;50.560;12.636;2023-01-06T12:51:49;0.30;;;0.30;;
4758;SDS011;2393;50.560;12.636;2023-01-06T12:54:22;2.20;;;0.20;;
4758;SDS011;2393;50.560;12.636;2023-01-06T12:56:59;0.30;;;0.20;;
4758;SDS011;2393;50.560;12.636;2023-01-06T12:59:35;0.30;;;0.20;;
4758;SDS011;2393;50.560;12.636;2023-01-06T13:02:15;0.63;;;0.30;;
4758;SDS011;2393;50.560;12.636;2023-01-06T13:05:01;0.30;;;0.20;;
4758;SDS011;2393;50.560;12.636;2023-01-06T13:07:45;0.30;;;0.20;;
4758;SDS011;2393;50.560;12.636;2023-01-06T13:10:19;0.87;;;0.23;;
4758;SDS011;2393;50.560;12.636;2023-01-06T13:12:58;0.33;;;0.30;;
4758;SDS011;2393;50.560;12.636;2023-01-06T13:15:32;0.33;;;0.30;;
4758;SDS011;2393;50.560;12.636;2023-01-06T13:18:10;0.30;;;0.20;;
4758;SDS011;2393;50.560;12.636;2023-01-06T13:20:46;0.40;;;0.30;;
4758;SDS011;2393;50.560;12.636;2023-01-06T13:23:26;0.40;;;0.33;;
4758;SDS011;2393;50.560;12.636;2023-01-06T13:26:10;0.50;;;0.30;;
4758;SDS011;2393;50.560;12.636;2023-01-06T13:28:51;0.30;;;0.20;;
4758;SDS011;2393;50.560;12.636;2023-01-06T13:31:41;0.30;;;0.20;;
4758;SDS011;2393;50.560;12.636;2023-01-06T13:34:40;0.50;;;0.40;;
4758;SDS011;2393;50.560;12.636;2023-01-06T13:37:34;0.30;;;0.30;;
4758;SDS011;2393;50.560;12.636;2023-01-06T13:40:11;1.27;;;0.30;;
4758;SDS011;2393;50.560;12.636;2023-01-06T13:42:44;0.50;;;0.40;;
4758;SDS011;2393;50.560;12.636;2023-01-06T13:45:16;0.30;;;0.23;;
4758;SDS011;2393;50.560;12.636;2023-01-06T13:47:47;0.33;;;0.33;;
4758;SDS011;2393;50.560;12.636;2023-01-06T13:50:19;2.03;;;0.40;;
4758;SDS011;2393;50.560;12.636;2023-01-06T13:52:48;0.73;;;0.40;;
4758;SDS011;2393;50.560;12.636;2023-01-06T13:55:21;0.37;;;0.30;;
4758;SDS011;2393;50.560;12.636;2023-01-06T13:57:51;2.63;;;0.60;;
4758;SDS011;2393;50.560;12.636;2023-01-06T14:00:20;0.30;;;0.20;;
4758;SDS011;2393;50.560;12.636;2023-01-06T14:05:55;1.23;;;0.73;;
4758;SDS011;2393;50.560;12.636;2023-01-06T14:08:32;0.60;;;0.30;;
4758;SDS011;2393;50.560;12.636;2023-01-06T14:11:05;0.30;;;0.20;;
4758;SDS011;2393;50.560;12.636;2023-01-06T14:13:49;8.00;;;0.37;;
4758;SDS011;2393;50.560;12.636;2023-01-06T14:16:19;0.40;;;0.40;;
4758;SDS011;2393;50.560;12.636;2023-01-06T14:18:48;0.60;;;0.60;;
4758;SDS011;2393;50.560;12.636;2023-01-06T14:21:21;0.50;;;0.50;;
4758;SDS011;2393;50.560;12.636;2023-01-06T14:23:55;1.50;;;0.73;;
4758;SDS011;2393;50.560;12.636;2023-01-06T14:26:46;5.27;;;2.53;;
4758;SDS011;2393;50.560;12.636;2023-01-06T14:32:56;7.07;;;3.60;;
4758;SDS011;2393;50.560;12.636;2023-01-06T14:35:34;38.00;;;15.13;;
4758;SDS011;2393;50.560;12.636;2023-01-06T14:38:14;18.70;;;8.10;;
4758;SDS011;2393;50.560;12.636;2023-01-06T14:40:51;2.07;;;1.87;;
4758;SDS011;2393;50.560;12.636;2023-01-06T14:43:27;0.40;;;0.40;;
4758;SDS011;2393;50.560;12.636;2023-01-06T14:46:01;1.83;;;0.40;;
4758;SDS011;2393;50.560;12.636;2023-01-06T14:48:36;0.40;;;0.40;;
4758;SDS011;2393;50.560;12.636;2023-01-06T14:51:11;0.30;;;0.30;;
4758;SDS011;2393;50.560;12.636;2023-01-06T14:53:46;0.30;;;0.30;;
4758;SDS011;2393;50.560;12.636;2023-01-06T14:56:20;0.87;;;0.60;;
4758;SDS011;2393;50.560;12.636;2023-01-06T14:59:00;0.50;;;0.50;;
4758;SDS011;2393;50.560;12.636;2023-01-06T15:01:57;4.10;;;0.50;;
4758;SDS011;2393;50.560;12.636;2023-01-06T15:04:28;1.00;;;0.90;;
4758;SDS011;2393;50.560;12.636;2023-01-06T15:06:59;0.60;;;0.40;;
4758;SDS011;2393;50.560;12.636;2023-01-06T15:09:32;0.80;;;0.70;;
4758;SDS011;2393;50.560;12.636;2023-01-06T15:12:00;0.70;;;0.70;;
4758;SDS011;2393;50.560;12.636;2023-01-06T15:14:29;0.93;;;0.70;;
4758;SDS011;2393;50.560;12.636;2023-01-06T15:17:00;0.37;;;0.37;;
4758;SDS011;2393;50.560;12.636;2023-01-06T15:19:30;0.60;;;0.60;;
4758;SDS011;2393;50.560;12.636;2023-01-06T15:21:59;0.30;;;0.20;;
4758;SDS011;2393;50.560;12.636;2023-01-06T15:24:33;0.40;;;0.40;;
4758;SDS011;2393;50.560;12.636;2023-01-06T15:27:05;0.50;;;0.40;;
4758;SDS011;2393;50.560;12.636;2023-01-06T15:29:34;0.30;;;0.30;;
4758;SDS011;2393;50.560;12.636;2023-01-06T15:32:02;0.30;;;0.20;;
4758;SDS011;2393;50.560;12.636;2023-01-06T15:34:34;0.40;;;0.40;;
4758;SDS011;2393;50.560;12.636;2023-01-06T15:37:06;0.77;;;0.60;;
4758;SDS011;2393;50.560;12.636;2023-01-06T15:39:37;0.40;;;0.30;;
4758;SDS011;2393;50.560;12.636;2023-01-06T15:42:06;1.53;;;0.50;;
4758;SDS011;2393;50.560;12.636;2023-01-06T15:44:36;0.40;;;0.40;;
4758;SDS011;2393;50.560;12.636;2023-01-06T15:47:07;0.97;;;0.30;;
4758;SDS011;2393;50.560;12.636;2023-01-06T15:49:47;0.83;;;0.50;;